sensor_id;sensor_type;location;lat;lon;timestamp;pressure;altitude;pressure_sealevel;temperature;humidity
45813;BME280;31519;45.408;10.962;2023-07-24T00:00:38;100498.75;;;30.53;43.39
45813;BME280;31519;45.408;10.962;2023-07-24T00:03:28;100503.25;;;30.34;43.66
45813;BME280;31519;45.408;10.962;2023-07-24T00:05:58;100503.31;;;30.30;43.61
45813;BME280;31519;45.408;10.962;2023-07-24T00:08:29;100501.88;;;30.13;45.15
45813;BME280;31519;45.408;10.962;2023-07-24T00:10:57;100503.78;;;30.29;45.50
45813;BME280;31519;45.408;10.962;2023-07-24T00:13:25;100499.13;;;30.13;46.67
45813;BME280;31519;45.408;10.962;2023-07-24T00:15:53;100498.00;;;29.98;48.44
45813;BME280;31519;45.408;10.962;2023-07-24T00:18:21;100485.94;;;30.08;48.00
45813;BME280;31519;45.408;10.962;2023-07-24T00:20:48;100488.28;;;30.22;48.59
45813;BME280;31519;45.408;10.962;2023-07-24T00:23:17;100490.72;;;30.33;48.45
45813;BME280;31519;45.408;10.962;2023-07-24T00:25:45;100481.78;;;30.16;48.74
45813;BME280;31519;45.408;10.962;2023-07-24T00:28:13;100482.88;;;30.31;48.52
45813;BME280;31519;45.408;10.962;2023-07-24T00:30:40;100478.94;;;30.20;48.91
45813;BME280;31519;45.408;10.962;2023-07-24T00:33:10;100469.81;;;30.10;50.03
45813;BME280;31519;45.408;10.962;2023-07-24T00:35:38;100464.09;;;29.76;50.54
45813;BME280;31519;45.408;10.962;2023-07-24T00:38:06;100464.84;;;29.64;51.14
45813;BME280;31519;45.408;10.962;2023-07-24T00:40:34;100467.94;;;29.78;50.98
45813;BME280;31519;45.408;10.962;2023-07-24T00:43:02;100468.53;;;29.57;51.57
45813;BME280;31519;45.408;10.962;2023-07-24T00:45:29;100459.16;;;29.42;52.02
45813;BME280;31519;45.408;10.962;2023-07-24T00:47:58;100463.53;;;29.97;50.25
45813;BME280;31519;45.408;10.962;2023-07-24T00:50:27;100468.25;;;29.97;50.94
45813;BME280;31519;45.408;10.962;2023-07-24T00:52:55;100465.38;;;30.00;50.83
45813;BME280;31519;45.408;10.962;2023-07-24T00:55:23;100458.03;;;29.97;50.87
45813;BME280;31519;45.408;10.962;2023-07-24T00:57:52;100453.34;;;29.81;51.71
45813;BME280;31519;45.408;10.962;2023-07-24T01:00:19;100455.28;;;29.68;51.87
45813;BME280;31519;45.408;10.962;2023-07-24T01:02:48;100453.50;;;29.62;52.23
45813;BME280;31519;45.408;10.962;2023-07-24T01:05:16;100460.00;;;29.39;52.47
45813;BME280;31519;45.408;10.962;2023-07-24T01:07:44;100453.84;;;29.64;51.99
45813;BME280;31519;45.408;10.962;2023-07-24T01:10:12;100452.00;;;29.73;51.56
45813;BME280;31519;45.408;10.962;2023-07-24T01:12:44;100446.47;;;29.89;51.41
45813;BME280;31519;45.408;10.962;2023-07-24T01:15:16;100455.25;;;29.56;52.36
45813;BME280;31519;45.408;10.962;2023-07-24T01:17:50;100449.13;;;29.35;53.23
45813;BME280;31519;45.408;10.962;2023-07-24T01:20:21;100449.81;;;29.39;52.90
45813;BME280;31519;45.408;10.962;2023-07-24T01:25:27;100445.91;;;29.53;52.90
45813;BME280;31519;45.408;10.962;2023-07-24T01:27:59;100438.34;;;29.28;53.59
45813;BME280;31519;45.408;10.962;2023-07-24T01:30:27;100437.56;;;29.12;54.16
45813;BME280;31519;45.408;10.962;2023-07-24T01:32:55;100442.38;;;29.07;54.22
45813;BME280;31519;45.408;10.962;2023-07-24T01:35:23;100437.50;;;29.31;53.68
45813;BME280;31519;45.408;10.962;2023-07-24T01:37:51;100426.59;;;29.28;53.88
45813;BME280;31519;45.408;10.962;2023-07-24T01:40:19;100440.78;;;29.39;53.61
45813;BME280;31519;45.408;10.962;2023-07-24T01:42:50;100444.66;;;29.25;53.86
45813;BME280;31519;45.408;10.962;2023-07-24T01:45:18;100433.25;;;29.27;53.45
45813;BME280;31519;45.408;10.962;2023-07-24T01:47:47;100430.91;;;29.13;54.91
45813;BME280;31519;45.408;10.962;2023-07-24T01:50:15;100430.75;;;29.03;54.66
45813;BME280;31519;45.408;10.962;2023-07-24T01:52:43;100429.97;;;29.03;55.11
45813;BME280;31519;45.408;10.962;2023-07-24T01:55:12;100425.97;;;29.20;54.07
45813;BME280;31519;45.408;10.962;2023-07-24T01:57:41;100423.34;;;29.17;53.94
45813;BME280;31519;45.408;10.962;2023-07-24T02:00:09;100427.31;;;28.99;54.51
45813;BME280;31519;45.408;10.962;2023-07-24T02:02:37;100431.00;;;29.09;54.39
45813;BME280;31519;45.408;10.962;2023-07-24T02:05:05;100428.50;;;29.15;54.54
45813;BME280;31519;45.408;10.962;2023-07-24T02:07:33;100440.75;;;28.61;56.48
45813;BME280;31519;45.408;10.962;2023-07-24T02:10:01;100451.41;;;28.59;57.14
45813;BME280;31519;45.408;10.962;2023-07-24T02:12:29;100441.19;;;28.44;57.39
45813;BME280;31519;45.408;10.962;2023-07-24T02:14:57;100430.69;;;28.75;56.48
45813;BME280;31519;45.408;10.962;2023-07-24T02:17:25;100426.09;;;28.36;57.31
45813;BME280;31519;45.408;10.962;2023-07-24T02:19:53;100436.63;;;28.37;57.28
45813;BME280;31519;45.408;10.962;2023-07-24T02:22:22;100432.66;;;27.86;58.72
45813;BME280;31519;45.408;10.962;2023-07-24T02:24:49;100440.66;;;27.77;59.21
45813;BME280;31519;45.408;10.962;2023-07-24T02:27:24;100433.03;;;28.04;58.29
45813;BME280;31519;45.408;10.962;2023-07-24T02:29:52;100418.16;;;28.41;57.64
45813;BME280;31519;45.408;10.962;2023-07-24T02:32:21;100400.34;;;28.49;56.88
45813;BME280;31519;45.408;10.962;2023-07-24T02:34:50;100397.94;;;28.51;56.93
45813;BME280;31519;45.408;10.962;2023-07-24T02:37:18;100390.81;;;28.38;57.01
45813;BME280;31519;45.408;10.962;2023-07-24T02:39:46;100385.44;;;28.50;56.65
45813;BME280;31519;45.408;10.962;2023-07-24T02:42:15;100385.25;;;28.57;57.07
45813;BME280;31519;45.408;10.962;2023-07-24T02:44:44;100370.19;;;28.82;55.95
45813;BME280;31519;45.408;10.962;2023-07-24T02:47:12;100355.63;;;28.52;56.50
45813;BME280;31519;45.408;10.962;2023-07-24T02:49:40;100347.31;;;28.56;56.48
45813;BME280;31519;45.408;10.962;2023-07-24T02:52:08;100346.91;;;28.25;57.38
45813;BME280;31519;45.408;10.962;2023-07-24T02:54:36;100337.31;;;28.33;56.96
45813;BME280;31519;45.408;10.962;2023-07-24T02:57:04;100341.69;;;28.31;57.12
45813;BME280;31519;45.408;10.962;2023-07-24T02:59:32;100344.00;;;28.48;56.33
45813;BME280;31519;45.408;10.962;2023-07-24T03:02:02;100335.00;;;28.32;56.67
45813;BME280;31519;45.408;10.962;2023-07-24T03:04:30;100339.22;;;28.36;56.38
45813;BME280;31519;45.408;10.962;2023-07-24T03:06:59;100337.13;;;28.24;57.06
45813;BME280;31519;45.408;10.962;2023-07-24T03:09:27;100337.47;;;28.42;56.00
45813;BME280;31519;45.408;10.962;2023-07-24T03:11:55;100337.31;;;28.49;56.23
45813;BME280;31519;45.408;10.962;2023-07-24T03:14:24;100331.94;;;28.46;55.88
45813;BME280;31519;45.408;10.962;2023-07-24T03:16:52;100324.78;;;28.81;55.09
45813;BME280;31519;45.408;10.962;2023-07-24T03:19:20;100324.69;;;28.84;54.75
45813;BME280;31519;45.408;10.962;2023-07-24T03:21:48;100327.47;;;28.36;56.38
45813;BME280;31519;45.408;10.962;2023-07-24T03:24:16;100342.72;;;28.20;56.76
45813;BME280;31519;45.408;10.962;2023-07-24T03:26:44;100326.63;;;28.23;56.88
45813;BME280;31519;45.408;10.962;2023-07-24T03:29:12;100334.25;;;28.31;56.43
45813;BME280;31519;45.408;10.962;2023-07-24T03:31:40;100346.75;;;28.32;56.57
45813;BME280;31519;45.408;10.962;2023-07-24T03:34:08;100336.72;;;28.26;56.88
45813;BME280;31519;45.408;10.962;2023-07-24T03:36:36;100346.81;;;28.12;57.03
45813;BME280;31519;45.408;10.962;2023-07-24T03:39:04;100349.50;;;27.96;57.37
45813;BME280;31519;45.408;10.962;2023-07-24T03:41:32;100369.75;;;27.43;59.06
45813;BME280;31519;45.408;10.962;2023-07-24T03:44:00;100375.22;;;26.80;61.67
45813;BME280;31519;45.408;10.962;2023-07-24T03:46:29;100368.41;;;26.15;65.02
45813;BME280;31519;45.408;10.962;2023-07-24T03:48:58;100373.78;;;26.72;63.22
45813;BME280;31519;45.408;10.962;2023-07-24T03:51:26;100375.97;;;26.34;64.06
45813;BME280;31519;45.408;10.962;2023-07-24T03:53:53;100388.66;;;26.18;64.32
45813;BME280;31519;45.408;10.962;2023-07-24T03:56:21;100381.59;;;25.63;65.93
45813;BME280;31519;45.408;10.962;2023-07-24T03:58:49;100382.59;;;26.07;64.91
45813;BME280;31519;45.408;10.962;2023-07-24T04:01:17;100380.63;;;26.61;61.75
45813;BME280;31519;45.408;10.962;2023-07-24T04:03:45;100387.63;;;26.85;61.13
45813;BME280;31519;45.408;10.962;2023-07-24T04:06:14;100397.59;;;26.49;62.18
45813;BME280;31519;45.408;10.962;2023-07-24T04:08:41;100402.34;;;26.68;61.40
45813;BME280;31519;45.408;10.962;2023-07-24T04:11:09;100389.41;;;26.49;61.91
45813;BME280;31519;45.408;10.962;2023-07-24T04:13:37;100388.81;;;26.61;61.66
45813;BME280;31519;45.408;10.962;2023-07-24T04:16:06;100383.31;;;26.37;62.85
45813;BME280;31519;45.408;10.962;2023-07-24T04:18:33;100394.13;;;26.21;63.45
45813;BME280;31519;45.408;10.962;2023-07-24T04:21:01;100389.41;;;26.49;62.93
45813;BME280;31519;45.408;10.962;2023-07-24T04:23:29;100389.34;;;26.75;61.88
45813;BME280;31519;45.408;10.962;2023-07-24T04:25:57;100402.91;;;26.32;63.12
45813;BME280;31519;45.408;10.962;2023-07-24T04:28:25;100399.81;;;26.57;62.46
45813;BME280;31519;45.408;10.962;2023-07-24T04:30:53;100399.03;;;26.57;62.55
45813;BME280;31519;45.408;10.962;2023-07-24T04:33:21;100404.97;;;26.52;62.52
45813;BME280;31519;45.408;10.962;2023-07-24T04:35:49;100420.72;;;27.14;61.17
45813;BME280;31519;45.408;10.962;2023-07-24T04:38:17;100415.69;;;27.12;60.86
45813;BME280;31519;45.408;10.962;2023-07-24T04:40:45;100404.91;;;26.55;62.19
45813;BME280;31519;45.408;10.962;2023-07-24T04:43:13;100391.19;;;26.32;63.43
45813;BME280;31519;45.408;10.962;2023-07-24T04:45:41;100407.47;;;26.66;62.44
45813;BME280;31519;45.408;10.962;2023-07-24T04:48:09;100418.16;;;26.80;62.56
45813;BME280;31519;45.408;10.962;2023-07-24T04:50:37;100427.56;;;26.79;62.26
45813;BME280;31519;45.408;10.962;2023-07-24T04:53:05;100445.00;;;26.62;63.44
45813;BME280;31519;45.408;10.962;2023-07-24T04:55:33;100456.81;;;27.05;62.29
45813;BME280;31519;45.408;10.962;2023-07-24T04:58:00;100457.75;;;27.18;61.46
45813;BME280;31519;45.408;10.962;2023-07-24T05:00:29;100464.13;;;27.12;62.05
45813;BME280;31519;45.408;10.962;2023-07-24T05:02:56;100472.44;;;27.05;61.65
45813;BME280;31519;45.408;10.962;2023-07-24T05:05:25;100479.06;;;27.07;61.38
45813;BME280;31519;45.408;10.962;2023-07-24T05:07:52;100493.25;;;27.22;61.60
45813;BME280;31519;45.408;10.962;2023-07-24T05:10:20;100509.66;;;27.22;61.02
45813;BME280;31519;45.408;10.962;2023-07-24T05:12:48;100507.19;;;27.54;60.15
45813;BME280;31519;45.408;10.962;2023-07-24T05:15:17;100479.47;;;27.72;59.42
45813;BME280;31519;45.408;10.962;2023-07-24T05:17:44;100429.53;;;28.40;57.42
45813;BME280;31519;45.408;10.962;2023-07-24T05:20:13;100381.94;;;28.82;56.38
45813;BME280;31519;45.408;10.962;2023-07-24T05:22:40;100336.28;;;28.59;56.87
45813;BME280;31519;45.408;10.962;2023-07-24T05:25:08;100345.53;;;28.49;57.83
45813;BME280;31519;45.408;10.962;2023-07-24T05:27:36;100369.91;;;28.11;57.73
45813;BME280;31519;45.408;10.962;2023-07-24T05:30:05;100379.38;;;28.07;58.29
45813;BME280;31519;45.408;10.962;2023-07-24T05:32:33;100378.75;;;28.84;56.85
45813;BME280;31519;45.408;10.962;2023-07-24T05:35:01;100375.75;;;28.94;56.90
45813;BME280;31519;45.408;10.962;2023-07-24T05:37:29;100381.84;;;28.86;57.45
45813;BME280;31519;45.408;10.962;2023-07-24T05:39:57;100397.69;;;28.78;57.17
45813;BME280;31519;45.408;10.962;2023-07-24T05:42:25;100375.06;;;28.74;56.66
45813;BME280;31519;45.408;10.962;2023-07-24T05:44:53;100359.91;;;28.53;56.72
45813;BME280;31519;45.408;10.962;2023-07-24T05:47:21;100379.59;;;28.64;56.61
45813;BME280;31519;45.408;10.962;2023-07-24T05:49:49;100404.81;;;28.07;57.05
45813;BME280;31519;45.408;10.962;2023-07-24T05:52:17;100416.06;;;27.73;58.24
45813;BME280;31519;45.408;10.962;2023-07-24T05:54:45;100418.72;;;28.16;57.34
45813;BME280;31519;45.408;10.962;2023-07-24T05:57:13;100406.06;;;28.03;57.77
45813;BME280;31519;45.408;10.962;2023-07-24T05:59:41;100383.97;;;28.30;57.78
45813;BME280;31519;45.408;10.962;2023-07-24T06:02:09;100361.69;;;28.60;56.72
45813;BME280;31519;45.408;10.962;2023-07-24T06:04:37;100357.59;;;28.68;55.90
45813;BME280;31519;45.408;10.962;2023-07-24T06:07:05;100347.59;;;28.78;55.35
45813;BME280;31519;45.408;10.962;2023-07-24T06:09:33;100323.88;;;28.71;56.14
45813;BME280;31519;45.408;10.962;2023-07-24T06:12:01;100295.06;;;28.79;55.78
45813;BME280;31519;45.408;10.962;2023-07-24T06:14:29;100288.91;;;29.45;54.93
45813;BME280;31519;45.408;10.962;2023-07-24T06:16:57;100280.56;;;29.74;54.40
45813;BME280;31519;45.408;10.962;2023-07-24T06:19:25;100276.41;;;29.70;53.91
45813;BME280;31519;45.408;10.962;2023-07-24T06:21:53;100282.75;;;29.79;54.04
45813;BME280;31519;45.408;10.962;2023-07-24T06:24:21;100285.00;;;29.97;53.52
45813;BME280;31519;45.408;10.962;2023-07-24T06:26:51;100292.97;;;29.66;54.78
45813;BME280;31519;45.408;10.962;2023-07-24T06:29:19;100304.28;;;29.81;53.55
45813;BME280;31519;45.408;10.962;2023-07-24T06:31:46;100281.91;;;29.95;53.60
45813;BME280;31519;45.408;10.962;2023-07-24T06:34:15;100288.59;;;29.81;54.46
45813;BME280;31519;45.408;10.962;2023-07-24T06:36:42;100304.41;;;29.90;54.14
45813;BME280;31519;45.408;10.962;2023-07-24T06:39:10;100331.75;;;30.31;53.24
45813;BME280;31519;45.408;10.962;2023-07-24T06:41:38;100346.94;;;29.98;54.44
45813;BME280;31519;45.408;10.962;2023-07-24T06:44:07;100362.44;;;30.05;54.70
45813;BME280;31519;45.408;10.962;2023-07-24T06:46:34;100351.72;;;30.45;53.98
45813;BME280;31519;45.408;10.962;2023-07-24T06:49:03;100346.28;;;29.94;56.18
45813;BME280;31519;45.408;10.962;2023-07-24T06:51:31;100310.28;;;30.52;55.17
45813;BME280;31519;45.408;10.962;2023-07-24T06:53:59;100309.41;;;31.11;53.65
45813;BME280;31519;45.408;10.962;2023-07-24T06:56:27;100318.34;;;31.24;53.83
45813;BME280;31519;45.408;10.962;2023-07-24T06:58:55;100324.78;;;31.21;54.29
45813;BME280;31519;45.408;10.962;2023-07-24T07:01:23;100328.31;;;31.31;54.02
45813;BME280;31519;45.408;10.962;2023-07-24T07:03:51;100317.97;;;31.35;54.69
45813;BME280;31519;45.408;10.962;2023-07-24T07:06:19;100322.72;;;31.34;55.21
45813;BME280;31519;45.408;10.962;2023-07-24T07:08:50;100327.63;;;31.17;56.34
45813;BME280;31519;45.408;10.962;2023-07-24T07:11:18;100346.66;;;31.24;56.36
45813;BME280;31519;45.408;10.962;2023-07-24T07:13:46;100356.03;;;31.36;56.73
45813;BME280;31519;45.408;10.962;2023-07-24T07:16:14;100352.72;;;31.41;57.03
45813;BME280;31519;45.408;10.962;2023-07-24T07:18:44;100349.19;;;31.41;56.91
45813;BME280;31519;45.408;10.962;2023-07-24T07:21:12;100360.97;;;31.63;57.12
45813;BME280;31519;45.408;10.962;2023-07-24T07:23:40;100358.78;;;31.58;56.68
45813;BME280;31519;45.408;10.962;2023-07-24T07:26:08;100344.44;;;31.63;57.01
45813;BME280;31519;45.408;10.962;2023-07-24T07:28:36;100357.72;;;31.55;56.96
45813;BME280;31519;45.408;10.962;2023-07-24T07:31:05;100373.59;;;31.51;57.15
45813;BME280;31519;45.408;10.962;2023-07-24T07:33:33;100366.22;;;31.70;56.54
45813;BME280;31519;45.408;10.962;2023-07-24T07:36:01;100340.75;;;31.88;56.17
45813;BME280;31519;45.408;10.962;2023-07-24T07:38:30;100337.34;;;32.15;55.58
45813;BME280;31519;45.408;10.962;2023-07-24T07:40:57;100345.88;;;32.07;55.31
45813;BME280;31519;45.408;10.962;2023-07-24T07:43:26;100331.59;;;32.58;54.44
45813;BME280;31519;45.408;10.962;2023-07-24T07:45:53;100316.47;;;32.72;53.88
45813;BME280;31519;45.408;10.962;2023-07-24T07:48:22;100297.44;;;32.65;54.05
45813;BME280;31519;45.408;10.962;2023-07-24T07:50:50;100308.19;;;32.63;54.15
45813;BME280;31519;45.408;10.962;2023-07-24T07:53:19;100304.28;;;32.33;54.42
45813;BME280;31519;45.408;10.962;2023-07-24T07:55:54;100280.69;;;32.32;54.20
45813;BME280;31519;45.408;10.962;2023-07-24T07:58:23;100277.03;;;32.26;55.32
45813;BME280;31519;45.408;10.962;2023-07-24T08:00:50;100250.09;;;32.48;54.44
45813;BME280;31519;45.408;10.962;2023-07-24T08:03:18;100229.84;;;32.87;53.53
45813;BME280;31519;45.408;10.962;2023-07-24T08:05:46;100215.16;;;32.81;53.02
45813;BME280;31519;45.408;10.962;2023-07-24T08:08:14;100218.97;;;32.84;52.09
45813;BME280;31519;45.408;10.962;2023-07-24T08:10:42;100220.06;;;32.68;51.88
45813;BME280;31519;45.408;10.962;2023-07-24T08:13:10;100229.56;;;32.49;52.51
45813;BME280;31519;45.408;10.962;2023-07-24T08:15:38;100216.50;;;32.13;54.26
45813;BME280;31519;45.408;10.962;2023-07-24T08:18:07;100202.97;;;31.79;54.81
45813;BME280;31519;45.408;10.962;2023-07-24T08:20:35;100203.00;;;31.88;54.67
45813;BME280;31519;45.408;10.962;2023-07-24T08:23:04;100194.03;;;32.24;54.05
45813;BME280;31519;45.408;10.962;2023-07-24T08:25:31;100189.09;;;32.55;53.30
45813;BME280;31519;45.408;10.962;2023-07-24T08:27:59;100200.00;;;32.68;53.90
45813;BME280;31519;45.408;10.962;2023-07-24T08:30:35;100211.75;;;32.59;53.76
45813;BME280;31519;45.408;10.962;2023-07-24T08:33:03;100243.34;;;32.85;53.24
45813;BME280;31519;45.408;10.962;2023-07-24T08:35:31;100274.28;;;33.17;52.54
45813;BME280;31519;45.408;10.962;2023-07-24T08:37:59;100286.56;;;32.79;53.06
45813;BME280;31519;45.408;10.962;2023-07-24T08:40:27;100262.38;;;32.65;53.17
45813;BME280;31519;45.408;10.962;2023-07-24T08:42:55;100260.78;;;32.55;53.79
45813;BME280;31519;45.408;10.962;2023-07-24T08:45:24;100266.34;;;32.64;53.54
45813;BME280;31519;45.408;10.962;2023-07-24T08:47:52;100272.56;;;33.10;52.01
45813;BME280;31519;45.408;10.962;2023-07-24T08:50:21;100281.16;;;33.12;51.76
45813;BME280;31519;45.408;10.962;2023-07-24T08:52:49;100291.47;;;32.75;52.34
45813;BME280;31519;45.408;10.962;2023-07-24T08:55:17;100307.25;;;33.02;51.85
45813;BME280;31519;45.408;10.962;2023-07-24T08:57:45;100302.31;;;33.24;51.41
45813;BME280;31519;45.408;10.962;2023-07-24T09:00:13;100304.34;;;32.87;52.17
45813;BME280;31519;45.408;10.962;2023-07-24T09:02:41;100298.63;;;33.18;51.05
45813;BME280;31519;45.408;10.962;2023-07-24T09:05:10;100310.09;;;33.44;50.31
45813;BME280;31519;45.408;10.962;2023-07-24T09:07:39;100304.81;;;32.95;50.81
45813;BME280;31519;45.408;10.962;2023-07-24T09:10:07;100296.97;;;33.21;50.17
45813;BME280;31519;45.408;10.962;2023-07-24T09:12:42;100294.38;;;33.17;50.61
45813;BME280;31519;45.408;10.962;2023-07-24T09:15:11;100301.13;;;32.89;51.09
45813;BME280;31519;45.408;10.962;2023-07-24T09:17:47;100308.28;;;33.14;50.17
45813;BME280;31519;45.408;10.962;2023-07-24T09:20:15;100324.09;;;33.31;49.69
45813;BME280;31519;45.408;10.962;2023-07-24T09:22:49;100347.34;;;33.58;49.22
45813;BME280;31519;45.408;10.962;2023-07-24T09:25:38;100372.28;;;33.91;48.93
45813;BME280;31519;45.408;10.962;2023-07-24T09:28:14;100365.97;;;33.90;48.36
45813;BME280;31519;45.408;10.962;2023-07-24T09:30:50;100369.75;;;34.35;47.48
45813;BME280;31519;45.408;10.962;2023-07-24T09:33:18;100381.50;;;34.77;47.19
45813;BME280;31519;45.408;10.962;2023-07-24T09:35:56;100397.09;;;34.42;47.41
45813;BME280;31519;45.408;10.962;2023-07-24T09:38:24;100425.66;;;34.39;45.42
45813;BME280;31519;45.408;10.962;2023-07-24T09:40:52;100437.16;;;34.46;45.52
45813;BME280;31519;45.408;10.962;2023-07-24T09:43:24;100449.91;;;34.44;45.32
45813;BME280;31519;45.408;10.962;2023-07-24T09:46:07;100448.06;;;34.17;46.51
45813;BME280;31519;45.408;10.962;2023-07-24T09:48:37;100432.84;;;34.12;46.47
45813;BME280;31519;45.408;10.962;2023-07-24T09:51:11;100417.75;;;33.80;46.95
45813;BME280;31519;45.408;10.962;2023-07-24T09:56:12;100386.97;;;33.97;46.70
45813;BME280;31519;45.408;10.962;2023-07-24T09:58:40;100351.97;;;33.94;46.41
45813;BME280;31519;45.408;10.962;2023-07-24T10:01:09;100331.19;;;34.07;46.39
45813;BME280;31519;45.408;10.962;2023-07-24T10:03:40;100329.38;;;34.04;47.73
45813;BME280;31519;45.408;10.962;2023-07-24T10:06:10;100299.59;;;33.99;48.41
45813;BME280;31519;45.408;10.962;2023-07-24T10:08:39;100268.81;;;33.82;48.87
45813;BME280;31519;45.408;10.962;2023-07-24T10:11:08;100235.72;;;33.64;48.84
45813;BME280;31519;45.408;10.962;2023-07-24T10:13:36;100223.69;;;34.09;47.35
45813;BME280;31519;45.408;10.962;2023-07-24T10:16:04;100193.16;;;33.47;48.35
45813;BME280;31519;45.408;10.962;2023-07-24T10:18:34;100176.94;;;33.73;48.10
45813;BME280;31519;45.408;10.962;2023-07-24T10:21:04;100190.88;;;33.46;48.57
45813;BME280;31519;45.408;10.962;2023-07-24T10:23:42;100194.75;;;33.39;49.59
45813;BME280;31519;45.408;10.962;2023-07-24T10:26:10;100205.81;;;33.72;49.66
45813;BME280;31519;45.408;10.962;2023-07-24T10:28:39;100197.44;;;33.81;48.86
45813;BME280;31519;45.408;10.962;2023-07-24T10:31:19;100179.34;;;33.47;49.59
45813;BME280;31519;45.408;10.962;2023-07-24T10:33:48;100181.28;;;33.32;49.88
45813;BME280;31519;45.408;10.962;2023-07-24T10:36:17;100180.06;;;33.24;50.50
45813;BME280;31519;45.408;10.962;2023-07-24T10:38:46;100174.38;;;33.27;50.60
45813;BME280;31519;45.408;10.962;2023-07-24T10:41:15;100166.00;;;33.22;50.38
45813;BME280;31519;45.408;10.962;2023-07-24T10:43:44;100193.59;;;33.13;50.99
45813;BME280;31519;45.408;10.962;2023-07-24T10:46:16;100167.44;;;32.99;51.21
45813;BME280;31519;45.408;10.962;2023-07-24T10:48:45;100154.19;;;32.70;51.42
45813;BME280;31519;45.408;10.962;2023-07-24T10:51:14;100121.38;;;32.72;51.61
45813;BME280;31519;45.408;10.962;2023-07-24T10:53:48;100066.88;;;32.49;51.87
45813;BME280;31519;45.408;10.962;2023-07-24T10:56:16;100008.34;;;32.63;51.09
45813;BME280;31519;45.408;10.962;2023-07-24T10:58:44;100022.28;;;32.92;50.21
45813;BME280;31519;45.408;10.962;2023-07-24T11:01:12;100079.84;;;33.09;49.96
45813;BME280;31519;45.408;10.962;2023-07-24T11:03:42;100134.16;;;33.68;48.88
45813;BME280;31519;45.408;10.962;2023-07-24T11:06:12;100173.59;;;33.60;49.33
45813;BME280;31519;45.408;10.962;2023-07-24T11:08:40;100206.47;;;33.58;48.91
45813;BME280;31519;45.408;10.962;2023-07-24T11:11:08;100227.81;;;33.15;49.63
45813;BME280;31519;45.408;10.962;2023-07-24T11:13:37;100231.88;;;33.38;49.09
45813;BME280;31519;45.408;10.962;2023-07-24T11:16:06;100221.47;;;33.24;48.25
45813;BME280;31519;45.408;10.962;2023-07-24T11:18:44;100201.91;;;33.04;48.69
45813;BME280;31519;45.408;10.962;2023-07-24T11:21:24;100057.50;;;32.65;49.13
45813;BME280;31519;45.408;10.962;2023-07-24T11:23:53;100029.06;;;32.82;48.75
45813;BME280;31519;45.408;10.962;2023-07-24T11:26:23;100083.97;;;33.13;48.37
45813;BME280;31519;45.408;10.962;2023-07-24T11:28:52;100110.66;;;33.40;47.79
45813;BME280;31519;45.408;10.962;2023-07-24T11:31:20;100168.13;;;33.27;48.66
45813;BME280;31519;45.408;10.962;2023-07-24T11:33:49;100175.13;;;33.28;49.12
45813;BME280;31519;45.408;10.962;2023-07-24T11:36:17;100155.09;;;33.18;49.78
45813;BME280;31519;45.408;10.962;2023-07-24T11:38:45;100164.09;;;33.28;49.89
45813;BME280;31519;45.408;10.962;2023-07-24T11:41:15;100193.09;;;33.56;48.87
45813;BME280;31519;45.408;10.962;2023-07-24T11:43:47;100213.13;;;32.91;48.56
45813;BME280;31519;45.408;10.962;2023-07-24T11:46:27;100237.28;;;33.23;48.05
45813;BME280;31519;45.408;10.962;2023-07-24T11:48:55;100255.59;;;32.93;48.40
45813;BME280;31519;45.408;10.962;2023-07-24T11:51:26;100280.63;;;32.63;49.47
45813;BME280;31519;45.408;10.962;2023-07-24T11:54:11;100276.09;;;33.11;48.63
45813;BME280;31519;45.408;10.962;2023-07-24T11:56:40;100256.25;;;34.05;46.74
45813;BME280;31519;45.408;10.962;2023-07-24T12:01:39;100206.41;;;34.23;45.42
45813;BME280;31519;45.408;10.962;2023-07-24T12:04:06;100190.84;;;34.02;47.22
45813;BME280;31519;45.408;10.962;2023-07-24T12:06:35;100163.41;;;33.99;47.24
45813;BME280;31519;45.408;10.962;2023-07-24T12:09:05;100135.44;;;32.83;50.08
45813;BME280;31519;45.408;10.962;2023-07-24T12:11:33;100117.00;;;33.55;48.88
45813;BME280;31519;45.408;10.962;2023-07-24T12:14:01;100089.88;;;33.77;47.11
45813;BME280;31519;45.408;10.962;2023-07-24T12:16:29;100076.78;;;34.75;45.44
45813;BME280;31519;45.408;10.962;2023-07-24T12:18:58;100058.38;;;34.57;46.00
45813;BME280;31519;45.408;10.962;2023-07-24T12:21:26;100037.16;;;34.84;44.89
45813;BME280;31519;45.408;10.962;2023-07-24T12:23:54;100028.19;;;34.89;44.72
45813;BME280;31519;45.408;10.962;2023-07-24T12:26:22;100024.19;;;34.90;44.47
45813;BME280;31519;45.408;10.962;2023-07-24T12:28:52;99996.72;;;34.37;45.41
45813;BME280;31519;45.408;10.962;2023-07-24T12:31:20;99977.47;;;34.62;45.74
45813;BME280;31519;45.408;10.962;2023-07-24T12:33:48;99972.78;;;34.83;45.37
45813;BME280;31519;45.408;10.962;2023-07-24T12:36:16;99984.47;;;35.13;45.59
45813;BME280;31519;45.408;10.962;2023-07-24T12:38:44;99989.00;;;35.31;45.51
45813;BME280;31519;45.408;10.962;2023-07-24T12:41:12;100013.72;;;34.79;45.78
45813;BME280;31519;45.408;10.962;2023-07-24T12:43:39;100008.25;;;34.20;46.82
45813;BME280;31519;45.408;10.962;2023-07-24T12:46:07;100028.25;;;34.59;46.62
45813;BME280;31519;45.408;10.962;2023-07-24T12:48:35;100044.56;;;34.13;46.89
45813;BME280;31519;45.408;10.962;2023-07-24T12:51:03;100035.69;;;34.09;47.64
45813;BME280;31519;45.408;10.962;2023-07-24T12:53:31;100011.66;;;34.01;47.71
45813;BME280;31519;45.408;10.962;2023-07-24T12:56:18;99985.56;;;34.66;46.40